Time;durP1;ratioP1;P1;durP2;ratioP2;P2;SDS_P1;SDS_P2;PMS_P1;PMS_P2;Temp;Humidity;BMP_temperature;BMP_pressure;BME280_temperature;BME280_humidity;BME280_pressure;Samples;Min_cycle;Max_cycle;Signal;HPM_P1;HPM_P2
2021/08/17 00:00:33;;;;;;;13.20;6.95;;;;;;;18.78;100.00;96371.81;5010588;28;20570;-57
2021/08/17 00:03:02;;;;;;;11.35;6.80;;;;;;;18.51;100.00;96376.16;5006292;28;20072;-54
2021/08/17 00:05:30;;;;;;;11.68;6.85;;;;;;;18.18;100.00;96386.63;5008463;28;20544;-53
2021/08/17 00:08:02;;;;;;;13.10;7.65;;;;;;;17.84;100.00;96385.53;5010842;28;20089;-53
2021/08/17 00:10:31;;;;;;;15.65;9.35;;;;;;;17.51;100.00;96380.66;5012625;28;20587;-59
2021/08/17 00:12:59;;;;;;;19.58;10.82;;;;;;;17.41;100.00;96377.50;5009490;28;20076;-60
2021/08/17 00:15:28;;;;;;;19.85;10.02;;;;;;;17.26;100.00;96379.38;5012134;28;20074;-59
2021/08/17 00:17:57;;;;;;;20.73;11.20;;;;;;;17.09;100.00;96382.25;5007068;28;20072;-56
2021/08/17 00:20:25;;;;;;;18.40;10.38;;;;;;;16.91;100.00;96381.84;5008946;28;20069;-59
2021/08/17 00:22:54;;;;;;;17.08;10.45;;;;;;;16.98;100.00;96385.41;5006001;28;20513;-57
2021/08/17 00:25:23;;;;;;;17.73;10.07;;;;;;;17.33;100.00;96382.94;5015053;28;20081;-58
2021/08/17 00:27:52;;;;;;;18.90;10.82;;;;;;;17.24;100.00;96379.59;5008172;28;20081;-58
2021/08/17 00:30:21;;;;;;;21.23;10.93;;;;;;;17.28;100.00;96386.19;5009100;28;20570;-58
2021/08/17 00:32:49;;;;;;;22.25;11.73;;;;;;;17.71;100.00;96380.03;5007745;28;20558;-58
2021/08/17 00:35:18;;;;;;;20.73;11.00;;;;;;;17.28;100.00;96385.38;5020983;28;20081;-56
2021/08/17 00:37:46;;;;;;;18.75;11.38;;;;;;;17.43;100.00;96385.31;5010388;28;20080;-58
2021/08/17 00:40:15;;;;;;;21.10;11.13;;;;;;;17.37;100.00;96388.72;5004599;28;20065;-59
2021/08/17 00:42:47;;;;;;;20.73;11.80;;;;;;;17.23;100.00;96395.75;5013855;28;20061;-59
2021/08/17 00:45:20;;;;;;;20.02;11.23;;;;;;;17.17;100.00;96397.34;5015251;28;20072;-58
2021/08/17 00:47:49;;;;;;;24.17;11.65;;;;;;;17.41;100.00;96392.66;5010272;28;20134;-57
2021/08/17 00:50:18;;;;;;;23.25;11.02;;;;;;;17.12;100.00;96391.72;5009641;28;20084;-55
2021/08/17 00:52:49;;;;;;;22.10;11.43;;;;;;;17.60;100.00;96393.88;5013897;28;20097;-58
2021/08/17 00:55:18;;;;;;;20.70;11.45;;;;;;;17.63;100.00;96394.34;5010141;28;20580;-55
2021/08/17 00:57:48;;;;;;;18.83;11.05;;;;;;;17.52;100.00;96398.34;5010485;28;20467;-60
2021/08/17 01:00:18;;;;;;;21.67;11.40;;;;;;;17.73;100.00;96405.50;5011694;28;20804;-60
2021/08/17 01:02:47;;;;;;;19.08;10.32;;;;;;;17.71;100.00;96414.72;5008132;28;20066;-59
2021/08/17 01:05:18;;;;;;;17.77;10.05;;;;;;;17.43;100.00;96420.78;5008434;28;20073;-56
2021/08/17 01:07:46;;;;;;;17.95;9.60;;;;;;;17.83;100.00;96421.22;5018042;28;20073;-52
2021/08/17 01:10:15;;;;;;;19.13;10.25;;;;;;;17.84;100.00;96422.88;4998408;28;20337;-58
2021/08/17 01:12:44;;;;;;;18.80;9.63;;;;;;;18.11;100.00;96418.59;5005698;28;20064;-58
2021/08/17 01:15:15;;;;;;;17.35;9.43;;;;;;;17.97;100.00;96416.84;5002177;28;20473;-57
2021/08/17 01:17:44;;;;;;;18.40;10.55;;;;;;;17.97;100.00;96417.66;5010859;28;20080;-57
2021/08/17 01:20:15;;;;;;;18.17;10.13;;;;;;;18.11;100.00;96431.94;5006095;28;20077;-58
2021/08/17 01:22:57;;;;;;;;;;;;;;;17.67;100.00;96419.59;5007169;28;20080;-59
2021/08/17 01:25:25;;;;;;;13.32;7.07;;;;;;;17.31;100.00;96425.78;5007009;28;21603;-58
2021/08/17 01:27:55;;;;;;;12.48;7.20;;;;;;;17.40;100.00;96425.66;5008050;28;20077;-58
2021/08/17 01:30:23;;;;;;;15.10;8.32;;;;;;;17.47;100.00;96426.56;5005068;28;20516;-59
2021/08/17 01:32:52;;;;;;;15.93;8.57;;;;;;;17.51;100.00;96427.84;5014045;28;20097;-60
2021/08/17 01:35:20;;;;;;;14.35;7.18;;;;;;;16.92;100.00;96442.09;5020337;28;20088;-58
2021/08/17 01:37:49;;;;;;;12.32;6.90;;;;;;;16.97;100.00;96442.38;5014712;28;20081;-58
2021/08/17 01:40:18;;;;;;;13.18;7.43;;;;;;;17.03;100.00;96452.31;5008183;28;20464;-55
2021/08/17 01:42:47;;;;;;;12.30;7.13;;;;;;;17.26;100.00;96460.16;5007480;28;20516;-57
2021/08/17 01:45:18;;;;;;;11.43;6.63;;;;;;;17.07;100.00;96456.25;5005984;28;20069;-58
2021/08/17 01:47:47;;;;;;;12.43;7.13;;;;;;;17.13;100.00;96460.00;5003560;28;20062;-59
2021/08/17 01:50:18;;;;;;;13.15;7.70;;;;;;;17.29;100.00;96459.78;5003394;28;20080;-58
2021/08/17 01:52:47;;;;;;;12.07;6.60;;;;;;;17.23;100.00;96457.88;5001041;28;20844;-57
2021/08/17 01:55:15;;;;;;;10.95;6.40;;;;;;;16.93;100.00;96461.56;5005877;28;20489;-57
2021/08/17 01:57:44;;;;;;;10.52;6.45;;;;;;;17.10;100.00;96457.69;5001185;28;20080;-58
2021/08/17 02:00:13;;;;;;;10.73;6.38;;;;;;;16.29;100.00;96473.50;5014365;28;20085;-55
2021/08/17 02:02:43;;;;;;;9.90;5.88;;;;;;;16.84;100.00;96468.84;5013102;28;20076;-56
2021/08/17 02:05:12;;;;;;;8.85;5.18;;;;;;;16.11;100.00;96471.16;5005919;28;20221;-57
2021/08/17 02:07:41;;;;;;;9.80;5.70;;;;;;;16.52;100.00;96470.81;5008143;28;20073;-59
2021/08/17 02:10:10;;;;;;;9.57;5.50;;;;;;;16.57;100.00;96467.59;5007670;28;20066;-55
2021/08/17 02:12:38;;;;;;;9.07;5.10;;;;;;;16.16;100.00;96469.81;5008165;28;20799;-60
2021/08/17 02:15:07;;;;;;;10.27;5.85;;;;;;;16.87;100.00;96468.47;5006854;28;20542;-51
2021/08/17 02:17:35;;;;;;;9.48;5.97;;;;;;;17.13;100.00;96467.97;5003254;28;20073;-57
2021/08/17 02:20:06;;;;;;;8.50;5.70;;;;;;;16.94;100.00;96460.56;4988483;28;20094;-58
2021/08/17 02:22:35;;;;;;;14.02;6.57;;;;;;;17.08;100.00;96473.88;5011419;28;20062;-59
2021/08/17 02:25:04;;;;;;;8.75;5.75;;;;;;;16.62;100.00;96478.53;5005060;28;20065;-56
2021/08/17 02:27:34;;;;;;;8.98;5.40;;;;;;;16.54;100.00;96483.91;5007548;28;20076;-56
2021/08/17 02:30:04;;;;;;;9.63;5.85;;;;;;;16.45;100.00;96487.66;5003913;28;20068;-57
2021/08/17 02:32:33;;;;;;;11.07;5.85;;;;;;;16.87;100.00;96491.63;4969268;28;1180184;-58
2021/08/17 02:35:02;;;;;;;12.18;5.93;;;;;;;16.52;100.00;96496.59;5013168;28;20045;-59
2021/08/17 02:37:35;;;;;;;9.90;5.70;;;;;;;16.65;100.00;96506.63;5010842;28;20034;-60
2021/08/17 02:40:09;;;;;;;8.85;4.80;;;;;;;16.32;100.00;96505.09;4999857;28;20453;-66
2021/08/17 02:42:38;;;;;;;7.13;4.88;;;;;;;16.35;100.00;96519.88;5004771;28;20087;-60
2021/08/17 02:45:07;;;;;;;7.85;4.78;;;;;;;16.67;100.00;96526.72;5008165;28;20041;-59
2021/08/17 02:47:36;;;;;;;6.20;4.10;;;;;;;16.49;100.00;96539.56;5003904;28;20057;-60
2021/08/17 02:50:05;;;;;;;6.15;3.97;;;;;;;16.48;100.00;96532.56;5015679;28;20073;-51
2021/08/17 02:52:35;;;;;;;6.18;3.35;;;;;;;16.10;100.00;96533.38;5008374;28;21890;-60
2021/08/17 02:55:07;;;;;;;7.22;3.60;;;;;;;15.92;100.00;96532.81;5000319;28;20061;-57
2021/08/17 02:57:35;;;;;;;5.88;3.38;;;;;;;15.98;100.00;96534.78;5005919;28;20068;-58
2021/08/17 03:00:05;;;;;;;5.50;3.25;;;;;;;15.87;100.00;96530.69;5005658;28;20580;-58
2021/08/17 03:02:33;;;;;;;7.97;3.57;;;;;;;16.15;100.00;96532.81;5004025;28;20061;-58
2021/08/17 03:05:02;;;;;;;5.75;3.45;;;;;;;16.06;100.00;96539.19;5003873;28;20500;-59
2021/08/17 03:07:30;;;;;;;5.78;3.28;;;;;;;16.10;100.00;96549.34;5007892;28;20652;-57
2021/08/17 03:10:00;;;;;;;6.68;3.38;;;;;;;16.23;100.00;96546.06;5001475;28;20069;-59
2021/08/17 03:12:28;;;;;;;4.85;3.03;;;;;;;16.32;100.00;96552.16;5002959;28;20069;-58
2021/08/17 03:14:57;;;;;;;4.40;3.15;;;;;;;16.18;100.00;96545.78;5002641;28;20120;-57
2021/08/17 03:17:26;;;;;;;6.00;3.50;;;;;;;16.34;100.00;96555.47;5003984;28;20034;-59
2021/08/17 03:19:54;;;;;;;5.78;3.65;;;;;;;15.86;100.00;96558.28;5003145;28;20448;-54
2021/08/17 03:22:23;;;;;;;5.93;3.40;;;;;;;16.35;100.00;96559.78;5003214;28;20096;-56
2021/08/17 03:24:51;;;;;;;5.50;3.17;;;;;;;16.23;100.00;96564.69;5000092;28;20099;-55
2021/08/17 03:27:21;;;;;;;5.22;3.40;;;;;;;16.04;100.00;96563.34;5000753;28;20061;-58
2021/08/17 03:29:50;;;;;;;6.30;3.53;;;;;;;16.45;100.00;96564.84;5002193;28;20473;-56
2021/08/17 03:32:18;;;;;;;6.97;3.60;;;;;;;16.18;100.00;96566.25;5002556;28;20100;-53
2021/08/17 03:34:47;;;;;;;6.38;3.47;;;;;;;16.30;100.00;96567.47;5007585;28;20077;-59
2021/08/17 03:37:15;;;;;;;5.63;3.33;;;;;;;16.10;100.00;96567.97;5002296;28;20323;-57
2021/08/17 03:39:44;;;;;;;5.50;3.40;;;;;;;16.28;100.00;96569.50;5010723;28;20109;-58
2021/08/17 03:42:12;;;;;;;5.80;3.70;;;;;;;16.68;100.00;96570.97;5002745;28;20437;-58
2021/08/17 03:44:42;;;;;;;6.45;3.97;;;;;;;16.28;100.00;96572.16;5013782;28;20061;-55
2021/08/17 03:47:11;;;;;;;5.38;3.83;;;;;;;16.42;100.00;96566.06;5007851;28;20049;-56
2021/08/17 03:49:40;;;;;;;6.13;3.85;;;;;;;16.30;100.00;96581.59;5008482;28;20061;-59
2021/08/17 03:52:08;;;;;;;9.35;3.78;;;;;;;15.94;100.00;96586.66;5001326;28;20466;-58
2021/08/17 03:54:37;;;;;;;6.35;4.03;;;;;;;15.62;100.00;96591.13;5002615;28;20527;-55
2021/08/17 03:57:05;;;;;;;7.10;3.97;;;;;;;16.18;100.00;96590.19;5001304;28;20534;-59
2021/08/17 03:59:34;;;;;;;7.20;4.22;;;;;;;16.26;100.00;96596.28;5009937;28;20127;-59
2021/08/17 04:02:04;;;;;;;8.35;4.35;;;;;;;16.07;100.00;96599.38;5000541;28;20084;-58
2021/08/17 04:04:32;;;;;;;8.50;4.13;;;;;;;16.20;100.00;96593.47;5006676;28;20093;-57
2021/08/17 04:07:01;;;;;;;6.65;4.10;;;;;;;16.03;100.00;96603.41;5001636;28;20732;-56
2021/08/17 04:09:29;;;;;;;4.97;3.70;;;;;;;15.45;100.00;96613.44;5007160;28;20115;-57
2021/08/17 04:11:58;;;;;;;7.43;4.07;;;;;;;15.99;100.00;96615.41;5005080;28;20065;-60
2021/08/17 04:14:26;;;;;;;7.13;4.00;;;;;;;16.02;100.00;96610.56;5001674;28;20064;-58
2021/08/17 04:16:57;;;;;;;5.50;4.03;;;;;;;16.31;100.00;96609.03;5003848;28;20093;-55
2021/08/17 04:19:27;;;;;;;7.05;4.15;;;;;;;16.14;100.00;96613.66;5010594;28;20086;-53
2021/08/17 04:21:56;;;;;;;6.53;4.15;;;;;;;16.22;100.00;96608.28;5006969;28;20061;-55
2021/08/17 04:24:25;;;;;;;6.72;4.25;;;;;;;16.11;100.00;96614.84;5015688;28;20500;-55
2021/08/17 04:26:54;;;;;;;6.05;3.85;;;;;;;16.01;100.00;96624.03;5008065;28;20059;-57
2021/08/17 04:29:22;;;;;;;6.20;3.97;;;;;;;16.28;100.00;96623.53;5001752;28;20096;-54
2021/08/17 04:31:51;;;;;;;7.63;4.65;;;;;;;16.21;100.00;96627.91;5004904;28;20088;-59
2021/08/17 04:34:19;;;;;;;7.75;4.47;;;;;;;16.75;100.00;96629.72;5018633;28;20219;-58
2021/08/17 04:36:49;;;;;;;5.88;3.90;;;;;;;16.76;100.00;96636.72;5003786;28;20062;-53
2021/08/17 04:39:17;;;;;;;8.05;4.45;;;;;;;16.37;100.00;96635.78;5012544;28;20111;-53
2021/08/17 04:41:46;;;;;;;6.70;4.57;;;;;;;17.29;100.00;96633.03;4998718;28;20072;-57
2021/08/17 04:44:14;;;;;;;7.22;4.68;;;;;;;16.89;100.00;96644.91;5007631;28;20074;-56
2021/08/17 04:46:43;;;;;;;6.63;4.28;;;;;;;16.60;100.00;96645.63;5003528;28;20088;-59
2021/08/17 04:49:11;;;;;;;8.38;4.82;;;;;;;16.56;100.00;96641.66;5001526;28;20078;-58
2021/08/17 04:51:42;;;;;;;6.68;4.35;;;;;;;16.31;100.00;96644.50;5003504;28;20461;-55
2021/08/17 04:54:12;;;;;;;9.55;4.45;;;;;;;16.70;100.00;96645.38;5001164;28;20064;-57
2021/08/17 04:56:40;;;;;;;6.70;4.38;;;;;;;16.84;100.00;96650.78;5002720;28;20128;-55
2021/08/17 04:59:09;;;;;;;8.35;4.32;;;;;;;17.00;100.00;96654.34;5005460;28;20077;-59
2021/08/17 05:01:38;;;;;;;9.10;4.95;;;;;;;18.37;100.00;96647.59;5007246;28;20089;-55
2021/08/17 05:04:08;;;;;;;11.30;4.80;;;;;;;18.93;100.00;96657.66;5005629;28;20065;-57
2021/08/17 05:06:36;;;;;;;6.35;4.13;;;;;;;18.16;100.00;96658.22;5007226;28;20091;-56
2021/08/17 05:09:05;;;;;;;4.38;3.72;;;;;;;19.47;100.00;96656.19;5002798;28;20070;-58
2021/08/17 05:11:35;;;;;;;7.35;4.10;;;;;;;20.49;100.00;96658.16;5003422;28;20072;-58
2021/08/17 05:14:06;;;;;;;5.18;3.90;;;;;;;20.98;96.54;96659.69;5000451;28;20077;-58
2021/08/17 05:16:35;;;;;;;5.35;3.58;;;;;;;22.10;87.55;96663.31;5007132;28;20075;-60
2021/08/17 05:19:04;;;;;;;4.13;3.35;;;;;;;21.93;83.16;96669.13;5004084;28;20034;-57
2021/08/17 05:21:33;;;;;;;8.35;3.60;;;;;;;20.82;91.10;96666.31;5001081;28;20423;-53
2021/08/17 05:24:01;;;;;;;7.30;3.65;;;;;;;20.89;91.03;96666.28;5000221;28;20735;-51
2021/08/17 05:26:30;;;;;;;5.28;3.40;;;;;;;19.95;100.00;96677.72;5006225;28;20084;-59
2021/08/17 05:29:00;;;;;;;7.53;3.55;;;;;;;18.93;100.00;96671.00;5004522;28;20074;-56
2021/08/17 05:31:28;;;;;;;4.60;3.47;;;;;;;18.94;100.00;96670.81;5007764;28;20085;-57
2021/08/17 05:33:57;;;;;;;6.10;3.35;;;;;;;19.81;100.00;96674.97;5008593;28;20068;-57
2021/08/17 05:36:25;;;;;;;5.47;3.28;;;;;;;19.29;100.00;96683.44;5005354;28;20073;-57
2021/08/17 05:38:54;;;;;;;4.95;3.10;;;;;;;18.57;100.00;96679.84;5009342;28;20061;-57
2021/08/17 05:41:22;;;;;;;4.70;2.90;;;;;;;17.05;100.00;96684.75;5005263;28;20077;-58
2021/08/17 05:43:51;;;;;;;4.90;3.05;;;;;;;17.29;100.00;96690.88;5009101;28;20077;-54
2021/08/17 05:46:21;;;;;;;4.22;2.88;;;;;;;17.19;100.00;96683.13;5006919;28;20630;-55
2021/08/17 05:48:50;;;;;;;;;;;;;;;16.78;100.00;96688.78;5006432;28;20034;-57
2021/08/17 05:51:18;;;;;;;6.50;3.40;;;;;;;16.71;100.00;96697.63;5006737;28;19921;-58
2021/08/17 05:53:47;;;;;;;4.20;3.00;;;;;;;16.47;100.00;96699.44;5006390;28;20041;-58
2021/08/17 05:56:16;;;;;;;6.45;3.20;;;;;;;16.56;100.00;96693.06;5007108;28;20078;-54
2021/08/17 05:58:45;;;;;;;4.40;3.10;;;;;;;17.07;100.00;96695.22;5012226;28;20054;-53
2021/08/17 06:01:14;;;;;;;5.15;3.10;;;;;;;16.84;100.00;96704.06;5006139;28;20069;-59
2021/08/17 06:03:53;;;;;;;6.82;3.20;;;;;;;16.87;100.00;96697.56;5006724;28;20065;-51
2021/08/17 06:06:22;;;;;;;4.32;2.65;;;;;;;16.27;100.00;96685.72;5001086;28;20781;-58
2021/08/17 06:08:51;;;;;;;7.63;3.75;;;;;;;16.85;100.00;96697.72;5006138;28;20045;-57
2021/08/17 06:11:20;;;;;;;5.13;3.67;;;;;;;16.69;100.00;96696.97;5012905;28;20073;-57
2021/08/17 06:13:51;;;;;;;6.00;3.78;;;;;;;17.08;100.00;96694.22;5011988;28;20085;-53
2021/08/17 06:16:19;;;;;;;5.57;3.60;;;;;;;17.09;100.00;96701.19;4999544;28;20543;-58
2021/08/17 06:18:48;;;;;;;6.68;4.05;;;;;;;17.18;100.00;96705.47;5006124;28;20037;-56
2021/08/17 06:21:19;;;;;;;10.02;3.78;;;;;;;16.90;100.00;96702.53;5007754;28;20188;-52
2021/08/17 06:23:47;;;;;;;7.15;3.80;;;;;;;16.67;100.00;96707.81;5006165;28;20464;-59
2021/08/17 06:26:16;;;;;;;8.00;3.63;;;;;;;16.82;100.00;96706.06;5012716;28;20076;-58
2021/08/17 06:28:45;;;;;;;5.43;3.90;;;;;;;17.07;100.00;96705.88;5008786;28;20085;-56
2021/08/17 06:31:18;;;;;;;5.25;3.35;;;;;;;16.57;100.00;96710.69;5011658;28;20087;-53
2021/08/17 06:33:47;;;;;;;5.72;3.58;;;;;;;16.46;100.00;96710.28;5008145;28;20038;-59
2021/08/17 06:36:15;;;;;;;6.75;3.70;;;;;;;16.78;100.00;96710.09;5003939;28;20069;-52
2021/08/17 06:38:45;;;;;;;8.30;3.78;;;;;;;16.95;100.00;96710.78;5003485;28;20845;-54
2021/08/17 06:41:14;;;;;;;5.65;3.67;;;;;;;17.00;100.00;96718.28;5014952;28;20089;-55
2021/08/17 06:43:42;;;;;;;8.77;4.50;;;;;;;17.17;100.00;96724.28;5020685;28;20073;-57
2021/08/17 06:46:11;;;;;;;7.22;4.00;;;;;;;16.66;100.00;96726.63;5005510;28;20535;-52
2021/08/17 06:48:40;;;;;;;6.90;3.90;;;;;;;17.34;100.00;96731.13;4988169;28;20062;-57
2021/08/17 06:51:10;;;;;;;6.45;4.13;;;;;;;17.90;100.00;96738.78;4998658;28;20551;-54
2021/08/17 06:53:38;;;;;;;7.18;3.75;;;;;;;17.49;100.00;96737.34;5003477;28;20517;-57
2021/08/17 06:56:08;;;;;;;5.47;3.67;;;;;;;17.76;100.00;96740.44;5005674;28;20101;-57
2021/08/17 06:58:37;;;;;;;6.72;4.30;;;;;;;18.31;100.00;96738.31;5007944;28;20081;-54
2021/08/17 07:01:05;;;;;;;6.32;3.80;;;;;;;17.17;100.00;96727.78;5018883;28;20077;-51
2021/08/17 07:03:34;;;;;;;4.80;3.47;;;;;;;17.31;100.00;96739.50;5002988;28;20080;-55
2021/08/17 07:06:03;;;;;;;7.60;3.50;;;;;;;17.26;100.00;96740.03;4993428;28;20535;-55
2021/08/17 07:08:40;;;;;;;6.43;3.95;;;;;;;17.92;100.00;96744.75;4989424;28;20081;-54
2021/08/17 07:11:10;;;;;;;5.53;3.72;;;;;;;17.80;100.00;96736.38;5002405;28;20073;-50
2021/08/17 07:13:39;;;;;;;10.02;4.25;;;;;;;17.43;100.00;96745.22;5004187;28;20084;-53
2021/08/17 07:16:07;;;;;;;5.60;3.50;;;;;;;17.12;100.00;96747.97;5006752;28;20065;-55
2021/08/17 07:18:36;;;;;;;5.97;3.67;;;;;;;17.96;100.00;96743.38;5000531;28;20073;-58
2021/08/17 07:21:04;;;;;;;6.72;3.83;;;;;;;18.32;100.00;96737.28;5002837;28;20070;-56
2021/08/17 07:23:33;;;;;;;7.20;3.42;;;;;;;17.96;100.00;96730.88;4999161;28;20061;-54
2021/08/17 07:26:01;;;;;;;8.60;3.40;;;;;;;17.67;100.00;96742.31;4999883;28;20462;-55
2021/08/17 07:28:32;;;;;;;6.38;3.80;;;;;;;17.82;100.00;96738.88;5003989;28;20547;-51
2021/08/17 07:31:00;;;;;;;;;;;;;;;17.75;100.00;96750.22;4984733;28;20081;-54
2021/08/17 07:33:29;;;;;;;7.78;3.83;;;;;;;18.00;100.00;96747.34;4993514;28;19969;-56
2021/08/17 07:35:58;;;;;;;8.88;3.97;;;;;;;17.94;100.00;96754.25;5003330;28;20073;-55
2021/08/17 07:38:26;;;;;;;4.88;3.20;;;;;;;17.95;100.00;96750.56;4997294;28;20472;-57
2021/08/17 07:40:55;;;;;;;7.05;3.40;;;;;;;17.54;100.00;96747.44;4980554;28;20081;-50
2021/08/17 07:43:23;;;;;;;5.78;3.90;;;;;;;18.29;100.00;96753.69;5006914;28;20100;-53
2021/08/17 07:45:53;;;;;;;5.45;3.00;;;;;;;17.71;97.50;96754.28;5004146;28;20073;-50
2021/08/17 07:48:41;;;;;;;4.75;3.28;;;;;;;17.81;96.06;96762.03;5004684;28;20077;-51
2021/08/17 07:51:10;;;;;;;5.47;3.55;;;;;;;18.39;100.00;96752.38;5009814;28;20073;-48
2021/08/17 07:53:38;;;;;;;6.65;3.55;;;;;;;18.80;99.24;96749.19;5008654;28;20088;-49
2021/08/17 07:56:07;;;;;;;6.50;3.45;;;;;;;18.87;100.00;96750.09;5003809;28;20216;-55
2021/08/17 07:58:35;;;;;;;6.00;2.80;;;;;;;18.30;93.52;96755.31;5007824;28;20465;-56
2021/08/17 08:01:05;;;;;;;5.85;3.08;;;;;;;17.55;97.40;96755.28;5002760;28;20130;-51
2021/08/17 08:03:34;;;;;;;6.32;2.97;;;;;;;18.28;98.54;96755.53;5003960;28;20524;-56
2021/08/17 08:06:03;;;;;;;7.07;3.80;;;;;;;17.94;100.00;96751.56;5000542;28;20077;-56
2021/08/17 08:08:32;;;;;;;6.45;3.40;;;;;;;18.10;100.00;96750.56;4998947;28;20551;-52
2021/08/17 08:11:00;;;;;;;6.30;3.42;;;;;;;17.97;100.00;96747.72;5003760;28;20093;-55
2021/08/17 08:13:29;;;;;;;8.30;3.55;;;;;;;18.14;100.00;96743.84;5003768;28;20553;-55
2021/08/17 08:15:57;;;;;;;8.88;4.05;;;;;;;18.22;100.00;96748.25;5006180;28;20471;-53
2021/08/17 08:18:28;;;;;;;6.15;3.75;;;;;;;18.82;100.00;96746.31;4997231;28;20065;-58
2021/08/17 08:20:56;;;;;;;7.85;3.45;;;;;;;18.31;100.00;96757.00;5016840;28;20065;-55
2021/08/17 08:23:43;;;;;;;6.32;3.55;;;;;;;18.15;100.00;96758.03;5002270;28;20349;-55
2021/08/17 08:26:12;;;;;;;8.07;4.07;;;;;;;18.41;99.66;96753.03;5004770;28;20901;-58
2021/08/17 08:28:40;;;;;;;9.35;2.80;;;;;;;18.22;94.94;96759.75;5003023;28;20093;-55
2021/08/17 08:31:09;;;;;;;6.80;3.55;;;;;;;17.92;90.46;96753.59;5005896;28;20496;-55
2021/08/17 08:33:39;;;;;;;5.90;3.30;;;;;;;18.59;91.47;96757.97;5005329;28;20073;-56
2021/08/17 08:36:09;;;;;;;9.90;3.72;;;;;;;19.28;87.29;96741.44;5006092;28;20137;-56
2021/08/17 08:38:38;;;;;;;7.32;3.58;;;;;;;18.98;91.86;96746.06;5005297;28;20081;-52
2021/08/17 08:41:06;;;;;;;4.65;3.25;;;;;;;19.06;88.99;96745.94;5009230;28;20100;-55
2021/08/17 08:43:35;;;;;;;7.65;3.05;;;;;;;18.68;84.65;96758.66;5005651;28;20532;-50
2021/08/17 08:46:04;;;;;;;6.70;3.15;;;;;;;19.47;83.78;96753.31;5006977;28;20065;-56
2021/08/17 08:48:34;;;;;;;5.32;3.00;;;;;;;18.56;84.41;96762.84;5004138;28;20069;-51
2021/08/17 08:51:05;;;;;;;6.50;2.90;;;;;;;18.80;88.06;96751.03;5004851;28;20500;-52
2021/08/17 08:53:33;;;;;;;5.70;3.70;;;;;;;19.19;86.55;96753.28;5009054;28;20519;-55
2021/08/17 08:56:02;;;;;;;6.38;2.50;;;;;;;19.24;69.28;96758.06;5009960;28;20093;-58
2021/08/17 08:58:30;;;;;;;4.13;2.63;;;;;;;19.01;70.50;96739.53;5016617;28;20054;-55
2021/08/17 09:00:59;;;;;;;5.95;3.13;;;;;;;19.45;72.38;96750.03;5009238;28;20062;-57
2021/08/17 09:03:40;;;;;;;5.32;2.83;;;;;;;19.27;73.47;96755.84;5005969;28;20662;-56
2021/08/17 09:06:18;;;;;;;5.50;3.08;;;;;;;19.30;77.45;96750.06;5008062;28;20065;-54
2021/08/17 09:08:46;;;;;;;9.35;3.28;;;;;;;19.45;76.02;96753.50;5007645;28;20069;-57
2021/08/17 09:11:19;;;;;;;7.10;3.40;;;;;;;19.91;73.69;96746.88;5014965;28;20551;-58
2021/08/17 09:13:48;;;;;;;8.57;3.90;;;;;;;19.86;70.62;96752.00;5010788;28;20096;-60
2021/08/17 09:16:24;;;;;;;6.43;3.40;;;;;;;19.77;73.55;96755.84;5006852;28;20563;-55
2021/08/17 09:18:53;;;;;;;8.98;3.35;;;;;;;19.87;74.25;96756.31;5007314;28;20073;-57
2021/08/17 09:21:40;;;;;;;7.03;3.42;;;;;;;18.91;77.35;96761.22;5009721;28;20559;-59
2021/08/17 09:24:18;;;;;;;6.15;3.40;;;;;;;19.82;78.77;96756.91;5007265;28;20077;-55
2021/08/17 09:26:48;;;;;;;4.43;3.03;;;;;;;19.80;73.92;96764.31;5004816;28;20061;-58
2021/08/17 09:29:25;;;;;;;5.70;3.08;;;;;;;20.57;69.06;96755.28;5006776;28;20138;-55
2021/08/17 09:31:56;;;;;;;6.43;3.25;;;;;;;20.79;70.61;96758.66;5011491;28;20073;-53
2021/08/17 09:34:30;;;;;;;6.43;3.40;;;;;;;19.41;66.98;96759.44;5008754;28;20085;-56
2021/08/17 09:37:04;;;;;;;4.25;2.95;;;;;;;20.02;63.75;96748.16;5008915;28;20062;-53
2021/08/17 09:39:37;;;;;;;7.53;4.10;;;;;;;21.03;69.83;96737.69;5009481;28;20730;-58
2021/08/17 09:42:27;;;;;;;6.53;3.47;;;;;;;20.29;67.63;96731.22;5011134;28;20061;-56
2021/08/17 09:45:03;;;;;;;;;;;;;;;20.28;66.52;96718.03;5012651;28;20552;-56
2021/08/17 09:47:32;;;;;;;6.80;3.05;;;;;;;19.65;74.57;96728.81;5018383;28;20037;-56
2021/08/17 09:50:21;;;;;;;6.25;3.60;;;;;;;20.19;71.82;96724.56;5010295;28;20086;-55
2021/08/17 09:52:51;;;;;;;7.50;3.15;;;;;;;20.02;72.96;96714.19;5011969;28;20070;-56
2021/08/17 09:55:22;;;;;;;6.85;3.45;;;;;;;20.86;69.63;96716.63;5004476;28;20344;-55
2021/08/17 09:57:50;;;;;;;5.20;3.70;;;;;;;21.06;67.64;96715.84;5018487;28;20080;-52
2021/08/17 10:00:19;;;;;;;9.25;3.50;;;;;;;20.89;57.05;96723.44;5010774;28;20081;-55
2021/08/17 10:02:49;;;;;;;4.20;2.90;;;;;;;20.95;61.59;96727.13;5010087;28;20061;-57
2021/08/17 10:05:18;;;;;;;5.05;3.28;;;;;;;20.56;62.76;96724.16;5013717;28;20076;-56
2021/08/17 10:07:46;;;;;;;7.88;3.78;;;;;;;21.55;63.24;96712.78;5018623;28;20084;-54
2021/08/17 10:10:16;;;;;;;7.15;3.50;;;;;;;21.39;60.96;96707.00;5010539;28;20217;-54
2021/08/17 10:12:45;;;;;;;6.47;3.55;;;;;;;21.81;61.36;96705.72;5007800;28;20054;-53
2021/08/17 10:15:13;;;;;;;6.80;3.70;;;;;;;21.38;59.23;96700.81;5011160;28;20562;-55
2021/08/17 10:17:42;;;;;;;5.95;3.45;;;;;;;20.63;60.71;96694.69;5012334;28;20069;-56
2021/08/17 10:20:11;;;;;;;7.60;4.00;;;;;;;21.90;58.16;96693.72;5016766;28;20405;-55
2021/08/17 10:22:41;;;;;;;9.38;3.45;;;;;;;20.53;56.66;96686.22;5011698;28;20106;-56
2021/08/17 10:25:17;;;;;;;6.70;3.50;;;;;;;21.25;58.65;96688.19;5011780;28;20057;-57
2021/08/17 10:27:47;;;;;;;7.40;3.85;;;;;;;21.74;60.23;96688.78;5006797;28;20127;-54
2021/08/17 10:30:19;;;;;;;5.28;3.15;;;;;;;21.47;56.84;96682.63;5012847;28;20069;-57
2021/08/17 10:32:50;;;;;;;4.72;3.17;;;;;;;22.00;59.57;96688.75;5029076;28;20511;-56
2021/08/17 10:35:48;;;;;;;6.28;3.35;;;;;;;21.64;58.04;96683.84;5013152;28;20455;-53
2021/08/17 10:38:46;;;;;;;5.68;3.60;;;;;;;21.43;54.08;96678.72;5006895;28;20538;-58
2021/08/17 10:41:16;;;;;;;5.88;3.28;;;;;;;21.51;58.51;96682.03;5005095;28;20066;-56
2021/08/17 10:44:10;;;;;;;6.15;3.60;;;;;;;20.59;63.79;96686.25;5014089;28;20536;-56
2021/08/17 10:46:56;;;;;;;5.88;3.42;;;;;;;20.49;59.77;96667.00;5033826;28;20280;-58
2021/08/17 10:49:52;;;;;;;5.38;3.67;;;;;;;21.30;58.30;96675.00;5018795;28;20384;-56
2021/08/17 10:52:31;;;;;;;5.90;3.15;;;;;;;21.32;60.46;96672.09;5003767;28;20448;-56
2021/08/17 10:55:44;;;;;;;6.13;3.33;;;;;;;21.54;58.40;96673.56;5007845;28;20515;-52
2021/08/17 10:58:13;;;;;;;5.50;3.25;;;;;;;21.21;56.60;96659.31;4980674;28;20132;-53
2021/08/17 11:00:56;;;;;;;8.05;3.50;;;;;;;21.79;54.74;96667.53;5016848;28;20077;-54
2021/08/17 11:03:49;;;;;;;6.47;3.60;;;;;;;21.81;53.14;96662.75;5016967;28;20073;-55
2021/08/17 11:06:39;;;;;;;5.53;3.10;;;;;;;20.91;54.26;96651.66;5009948;28;20079;-57
2021/08/17 11:09:08;;;;;;;7.93;3.45;;;;;;;21.57;52.01;96656.19;5002745;28;20081;-54
2021/08/17 11:11:38;;;;;;;5.47;3.10;;;;;;;21.55;52.25;96653.72;5012044;28;20066;-56
2021/08/17 11:14:09;;;;;;;6.07;3.47;;;;;;;21.97;51.76;96643.50;5014055;28;20073;-56
2021/08/17 11:16:48;;;;;;;4.88;3.22;;;;;;;22.63;56.93;96646.94;5011998;28;20073;-48
2021/08/17 11:19:18;;;;;;;5.63;3.53;;;;;;;22.60;48.45;96648.19;5002906;28;21548;-51
2021/08/17 11:21:48;;;;;;;7.68;3.50;;;;;;;21.87;48.98;96661.91;5014747;28;20714;-47
2021/08/17 11:24:19;;;;;;;4.68;2.50;;;;;;;22.21;48.63;96642.00;5004530;28;20072;-48
2021/08/17 11:26:57;;;;;;;4.85;3.10;;;;;;;22.64;49.71;96648.59;5006449;28;20503;-50
2021/08/17 11:29:34;;;;;;;4.35;2.90;;;;;;;21.45;47.38;96649.84;5008382;28;20077;-49
2021/08/17 11:32:06;;;;;;;5.45;3.50;;;;;;;22.40;48.24;96642.97;5008400;28;20098;-48
2021/08/17 11:34:36;;;;;;;5.47;3.30;;;;;;;22.71;48.67;96647.53;5008511;28;20072;-52
2021/08/17 11:37:07;;;;;;;6.28;3.10;;;;;;;23.13;46.11;96647.06;5004400;28;20069;-50
2021/08/17 11:39:41;;;;;;;7.93;3.00;;;;;;;22.37;48.47;96651.44;5005131;28;20062;-54
2021/08/17 11:42:15;;;;;;;8.02;3.70;;;;;;;22.72;48.43;96649.16;5004338;28;20116;-48